sensor_id;sensor_type;location;lat;lon;timestamp;pressure;altitude;pressure_sealevel;temperature;humidity
23172;BME280;11754;42.664;23.594;2023-03-14T00:00:48;95691.66;;;3.02;49.26
23172;BME280;11754;42.664;23.594;2023-03-14T00:03:14;95685.84;;;2.98;49.69
23172;BME280;11754;42.664;23.594;2023-03-14T00:05:39;95689.66;;;3.05;48.87
23172;BME280;11754;42.664;23.594;2023-03-14T00:08:05;95688.00;;;3.04;48.96
23172;BME280;11754;42.664;23.594;2023-03-14T00:10:31;95687.06;;;3.05;48.85
23172;BME280;11754;42.664;23.594;2023-03-14T00:12:56;95686.00;;;3.08;48.60
23172;BME280;11754;42.664;23.594;2023-03-14T00:15:22;95670.59;;;3.05;48.39
23172;BME280;11754;42.664;23.594;2023-03-14T00:17:47;95664.31;;;3.07;48.50
23172;BME280;11754;42.664;23.594;2023-03-14T00:20:12;95661.00;;;3.05;48.16
23172;BME280;11754;42.664;23.594;2023-03-14T00:22:39;95657.44;;;3.06;48.44
23172;BME280;11754;42.664;23.594;2023-03-14T00:25:05;95637.75;;;3.02;48.44
23172;BME280;11754;42.664;23.594;2023-03-14T00:27:32;95654.00;;;3.06;48.53
23172;BME280;11754;42.664;23.594;2023-03-14T00:29:57;95641.44;;;3.00;48.55
23172;BME280;11754;42.664;23.594;2023-03-14T00:32:23;95645.59;;;3.02;48.54
23172;BME280;11754;42.664;23.594;2023-03-14T00:34:49;95633.28;;;3.04;48.33
23172;BME280;11754;42.664;23.594;2023-03-14T00:37:14;95628.28;;;3.01;48.79
23172;BME280;11754;42.664;23.594;2023-03-14T00:39:40;95624.03;;;3.00;49.16
23172;BME280;11754;42.664;23.594;2023-03-14T00:42:05;95604.59;;;2.93;49.42
23172;BME280;11754;42.664;23.594;2023-03-14T00:44:30;95609.81;;;2.93;50.11
23172;BME280;11754;42.664;23.594;2023-03-14T00:46:57;95611.00;;;2.89;50.48
23172;BME280;11754;42.664;23.594;2023-03-14T00:49:23;95602.81;;;2.82;51.04
23172;BME280;11754;42.664;23.594;2023-03-14T00:51:48;95603.38;;;2.75;51.05
23172;BME280;11754;42.664;23.594;2023-03-14T00:54:13;95598.41;;;2.72;51.56
23172;BME280;11754;42.664;23.594;2023-03-14T00:56:39;95595.06;;;2.70;51.21
23172;BME280;11754;42.664;23.594;2023-03-14T00:59:04;95602.06;;;2.69;51.54
23172;BME280;11754;42.664;23.594;2023-03-14T01:01:29;95596.47;;;2.62;51.27
23172;BME280;11754;42.664;23.594;2023-03-14T01:03:55;95592.94;;;2.63;51.47
23172;BME280;11754;42.664;23.594;2023-03-14T01:06:24;95600.41;;;2.68;51.00
23172;BME280;11754;42.664;23.594;2023-03-14T01:08:50;95597.69;;;2.70;50.98
23172;BME280;11754;42.664;23.594;2023-03-14T01:11:30;95595.44;;;2.65;50.80
23172;BME280;11754;42.664;23.594;2023-03-14T01:13:56;95594.38;;;2.68;50.95
23172;BME280;11754;42.664;23.594;2023-03-14T01:16:25;95589.16;;;2.68;51.06
23172;BME280;11754;42.664;23.594;2023-03-14T01:18:51;95577.56;;;2.60;51.31
23172;BME280;11754;42.664;23.594;2023-03-14T01:21:22;95584.19;;;2.64;51.33
23172;BME280;11754;42.664;23.594;2023-03-14T01:23:48;95566.41;;;2.58;51.46
23172;BME280;11754;42.664;23.594;2023-03-14T01:26:17;95574.22;;;2.58;51.91
23172;BME280;11754;42.664;23.594;2023-03-14T01:28:44;95550.75;;;2.47;51.61
23172;BME280;11754;42.664;23.594;2023-03-14T01:31:10;95560.72;;;2.42;51.73
23172;BME280;11754;42.664;23.594;2023-03-14T01:33:36;95558.53;;;2.36;52.19
23172;BME280;11754;42.664;23.594;2023-03-14T01:36:02;95575.59;;;2.40;52.17
23172;BME280;11754;42.664;23.594;2023-03-14T01:38:29;95568.13;;;2.35;52.04
23172;BME280;11754;42.664;23.594;2023-03-14T01:40:55;95556.91;;;2.35;52.54
23172;BME280;11754;42.664;23.594;2023-03-14T01:43:21;95548.59;;;2.30;52.37
23172;BME280;11754;42.664;23.594;2023-03-14T01:46:26;95533.88;;;2.17;52.85
23172;BME280;11754;42.664;23.594;2023-03-14T01:53:50;95542.66;;;2.16;53.04
23172;BME280;11754;42.664;23.594;2023-03-14T01:56:17;95548.78;;;2.15;53.31
23172;BME280;11754;42.664;23.594;2023-03-14T01:58:46;95536.47;;;2.06;53.11
23172;BME280;11754;42.664;23.594;2023-03-14T02:01:15;95543.09;;;2.10;53.46
23172;BME280;11754;42.664;23.594;2023-03-14T02:03:53;95538.94;;;2.08;53.12
23172;BME280;11754;42.664;23.594;2023-03-14T02:06:23;95534.78;;;2.05;52.68
23172;BME280;11754;42.664;23.594;2023-03-14T02:08:50;95541.66;;;2.06;52.61
23172;BME280;11754;42.664;23.594;2023-03-14T02:11:17;95551.13;;;2.07;53.08
23172;BME280;11754;42.664;23.594;2023-03-14T02:13:44;95542.31;;;1.97;53.38
23172;BME280;11754;42.664;23.594;2023-03-14T02:16:12;95542.09;;;2.00;52.96
23172;BME280;11754;42.664;23.594;2023-03-14T02:18:38;95544.22;;;1.95;53.70
23172;BME280;11754;42.664;23.594;2023-03-14T02:21:18;95549.66;;;1.92;53.57
23172;BME280;11754;42.664;23.594;2023-03-14T02:24:02;95541.94;;;1.90;53.67
23172;BME280;11754;42.664;23.594;2023-03-14T02:26:43;95531.13;;;1.84;53.83
23172;BME280;11754;42.664;23.594;2023-03-14T02:29:10;95539.91;;;1.83;54.07
23172;BME280;11754;42.664;23.594;2023-03-14T02:31:36;95546.88;;;1.82;54.16
23172;BME280;11754;42.664;23.594;2023-03-14T02:34:02;95541.19;;;1.77;53.81
23172;BME280;11754;42.664;23.594;2023-03-14T02:36:29;95548.03;;;1.78;53.95
23172;BME280;11754;42.664;23.594;2023-03-14T02:39:12;95543.78;;;1.77;54.01
23172;BME280;11754;42.664;23.594;2023-03-14T02:41:39;95530.81;;;1.64;54.61
23172;BME280;11754;42.664;23.594;2023-03-14T02:44:04;95535.06;;;1.65;55.24
23172;BME280;11754;42.664;23.594;2023-03-14T02:46:30;95524.84;;;1.51;56.06
23172;BME280;11754;42.664;23.594;2023-03-14T02:49:02;95520.53;;;1.39;56.59
23172;BME280;11754;42.664;23.594;2023-03-14T02:51:28;95517.66;;;1.31;56.96
23172;BME280;11754;42.664;23.594;2023-03-14T02:53:54;95537.69;;;1.29;57.17
23172;BME280;11754;42.664;23.594;2023-03-14T02:56:20;95542.41;;;1.24;57.23
23172;BME280;11754;42.664;23.594;2023-03-14T02:58:45;95533.88;;;1.22;57.32
23172;BME280;11754;42.664;23.594;2023-03-14T03:01:10;95526.19;;;1.20;56.67
23172;BME280;11754;42.664;23.594;2023-03-14T03:03:36;95525.59;;;1.16;56.78
23172;BME280;11754;42.664;23.594;2023-03-14T03:06:02;95528.69;;;1.22;56.45
23172;BME280;11754;42.664;23.594;2023-03-14T03:08:28;95528.38;;;1.13;56.53
23172;BME280;11754;42.664;23.594;2023-03-14T03:10:54;95531.19;;;1.10;56.81
23172;BME280;11754;42.664;23.594;2023-03-14T03:13:19;95533.16;;;1.19;56.61
23172;BME280;11754;42.664;23.594;2023-03-14T03:15:45;95549.47;;;1.22;57.00
23172;BME280;11754;42.664;23.594;2023-03-14T03:18:10;95542.19;;;1.27;56.92
23172;BME280;11754;42.664;23.594;2023-03-14T03:20:36;95548.09;;;1.29;56.66
23172;BME280;11754;42.664;23.594;2023-03-14T03:23:02;95544.56;;;1.30;57.23
23172;BME280;11754;42.664;23.594;2023-03-14T03:25:27;95548.09;;;1.29;56.95
23172;BME280;11754;42.664;23.594;2023-03-14T03:27:53;95556.72;;;1.29;57.48
23172;BME280;11754;42.664;23.594;2023-03-14T03:30:19;95540.50;;;1.26;57.20
23172;BME280;11754;42.664;23.594;2023-03-14T03:32:44;95538.03;;;1.24;56.84
23172;BME280;11754;42.664;23.594;2023-03-14T03:35:10;95528.69;;;1.22;57.20
23172;BME280;11754;42.664;23.594;2023-03-14T03:37:35;95529.72;;;1.19;57.10
23172;BME280;11754;42.664;23.594;2023-03-14T03:40:01;95536.69;;;1.18;57.01
23172;BME280;11754;42.664;23.594;2023-03-14T03:42:27;95528.38;;;1.13;56.80
23172;BME280;11754;42.664;23.594;2023-03-14T03:44:53;95538.03;;;1.11;56.76
23172;BME280;11754;42.664;23.594;2023-03-14T03:47:18;95536.31;;;1.12;56.98
23172;BME280;11754;42.664;23.594;2023-03-14T03:49:43;95529.75;;;1.06;56.89
23172;BME280;11754;42.664;23.594;2023-03-14T03:52:09;95536.41;;;1.10;57.29
23172;BME280;11754;42.664;23.594;2023-03-14T03:54:35;95541.38;;;1.13;56.76
23172;BME280;11754;42.664;23.594;2023-03-14T03:57:01;95537.75;;;1.03;57.87
23172;BME280;11754;42.664;23.594;2023-03-14T03:59:26;95543.06;;;0.89;57.70
23172;BME280;11754;42.664;23.594;2023-03-14T04:01:51;95533.53;;;0.77;57.99
23172;BME280;11754;42.664;23.594;2023-03-14T04:04:17;95534.81;;;0.58;59.13
23172;BME280;11754;42.664;23.594;2023-03-14T04:06:42;95539.88;;;0.47;59.51
23172;BME280;11754;42.664;23.594;2023-03-14T04:09:09;95539.56;;;0.52;58.96
23172;BME280;11754;42.664;23.594;2023-03-14T04:11:35;95551.59;;;0.53;59.11
23172;BME280;11754;42.664;23.594;2023-03-14T04:14:00;95539.88;;;0.47;59.85
23172;BME280;11754;42.664;23.594;2023-03-14T04:16:26;95542.88;;;0.54;59.65
23172;BME280;11754;42.664;23.594;2023-03-14T04:18:52;95526.06;;;0.46;59.41
23172;BME280;11754;42.664;23.594;2023-03-14T04:21:18;95538.31;;;0.57;58.97
23172;BME280;11754;42.664;23.594;2023-03-14T04:23:44;95528.88;;;0.56;59.26
23172;BME280;11754;42.664;23.594;2023-03-14T04:26:09;95530.22;;;0.62;59.49
23172;BME280;11754;42.664;23.594;2023-03-14T04:28:35;95536.97;;;0.64;58.83
23172;BME280;11754;42.664;23.594;2023-03-14T04:31:14;95526.28;;;0.69;58.88
23172;BME280;11754;42.664;23.594;2023-03-14T04:33:40;95519.19;;;0.71;59.04
23172;BME280;11754;42.664;23.594;2023-03-14T04:36:06;95527.91;;;0.83;59.03
23172;BME280;11754;42.664;23.594;2023-03-14T04:38:32;95531.44;;;0.82;58.34
23172;BME280;11754;42.664;23.594;2023-03-14T04:40:58;95514.31;;;0.79;58.29
23172;BME280;11754;42.664;23.594;2023-03-14T04:43:24;95522.22;;;0.78;58.10
23172;BME280;11754;42.664;23.594;2023-03-14T04:45:51;95518.16;;;0.74;58.65
23172;BME280;11754;42.664;23.594;2023-03-14T04:48:16;95518.16;;;0.74;58.73
23172;BME280;11754;42.664;23.594;2023-03-14T04:50:42;95514.84;;;0.71;58.78
23172;BME280;11754;42.664;23.594;2023-03-14T04:53:07;95521.81;;;0.84;58.97
23172;BME280;11754;42.664;23.594;2023-03-14T04:55:33;95515.66;;;0.85;58.93
23172;BME280;11754;42.664;23.594;2023-03-14T04:57:59;95506.44;;;0.81;58.75
23172;BME280;11754;42.664;23.594;2023-03-14T05:00:25;95512.31;;;0.83;58.75
23172;BME280;11754;42.664;23.594;2023-03-14T05:02:50;95511.63;;;0.81;58.85
23172;BME280;11754;42.664;23.594;2023-03-14T05:05:16;95501.44;;;0.78;59.29
23172;BME280;11754;42.664;23.594;2023-03-14T05:07:42;95510.69;;;0.82;59.32
23172;BME280;11754;42.664;23.594;2023-03-14T05:10:08;95509.53;;;0.86;59.51
23172;BME280;11754;42.664;23.594;2023-03-14T05:12:33;95517.31;;;0.86;59.10
23172;BME280;11754;42.664;23.594;2023-03-14T05:14:59;95509.53;;;0.86;59.19
23172;BME280;11754;42.664;23.594;2023-03-14T05:17:24;95504.78;;;0.80;58.85
23172;BME280;11754;42.664;23.594;2023-03-14T05:19:50;95492.81;;;0.77;59.33
23172;BME280;11754;42.664;23.594;2023-03-14T05:22:15;95511.41;;;0.84;59.38
23172;BME280;11754;42.664;23.594;2023-03-14T05:24:40;95512.84;;;0.88;59.48
23172;BME280;11754;42.664;23.594;2023-03-14T05:27:06;95518.34;;;0.96;59.34
23172;BME280;11754;42.664;23.594;2023-03-14T05:29:31;95497.16;;;1.02;58.95
23172;BME280;11754;42.664;23.594;2023-03-14T05:31:56;95511.22;;;1.24;58.44
23172;BME280;11754;42.664;23.594;2023-03-14T05:34:22;95509.31;;;1.38;58.09
23172;BME280;11754;42.664;23.594;2023-03-14T05:36:47;95503.34;;;1.49;57.58
23172;BME280;11754;42.664;23.594;2023-03-14T05:39:13;95500.06;;;1.58;57.38
23172;BME280;11754;42.664;23.594;2023-03-14T05:41:38;95504.38;;;1.71;57.18
23172;BME280;11754;42.664;23.594;2023-03-14T05:44:04;95495.59;;;1.84;56.96
23172;BME280;11754;42.664;23.594;2023-03-14T05:46:29;95479.50;;;1.90;56.31
23172;BME280;11754;42.664;23.594;2023-03-14T05:48:58;95484.66;;;2.03;56.34
23172;BME280;11754;42.664;23.594;2023-03-14T05:51:23;95482.31;;;2.23;56.27
23172;BME280;11754;42.664;23.594;2023-03-14T05:53:49;95487.31;;;2.37;55.45
23172;BME280;11754;42.664;23.594;2023-03-14T05:56:14;95488.06;;;2.50;55.60
23172;BME280;11754;42.664;23.594;2023-03-14T05:58:40;95490.91;;;2.58;54.65
23172;BME280;11754;42.664;23.594;2023-03-14T06:01:06;95490.22;;;2.68;54.21
23172;BME280;11754;42.664;23.594;2023-03-14T06:03:32;95477.41;;;2.76;54.81
23172;BME280;11754;42.664;23.594;2023-03-14T06:05:57;95474.56;;;2.90;54.61
23172;BME280;11754;42.664;23.594;2023-03-14T06:08:23;95484.13;;;3.12;54.22
23172;BME280;11754;42.664;23.594;2023-03-14T06:10:48;95484.22;;;3.33;53.63
23172;BME280;11754;42.664;23.594;2023-03-14T06:13:14;95483.00;;;3.48;51.72
23172;BME280;11754;42.664;23.594;2023-03-14T06:15:41;95483.16;;;3.68;51.27
23172;BME280;11754;42.664;23.594;2023-03-14T06:18:06;95483.09;;;3.90;50.74
23172;BME280;11754;42.664;23.594;2023-03-14T06:20:31;95486.44;;;4.13;50.70
23172;BME280;11754;42.664;23.594;2023-03-14T06:22:58;95476.44;;;4.39;51.36
23172;BME280;11754;42.664;23.594;2023-03-14T06:25:23;95470.75;;;4.55;50.84
23172;BME280;11754;42.664;23.594;2023-03-14T06:27:49;95459.41;;;4.66;49.95
23172;BME280;11754;42.664;23.594;2023-03-14T06:30:14;95467.06;;;4.88;47.98
23172;BME280;11754;42.664;23.594;2023-03-14T06:32:40;95454.16;;;4.96;48.32
23172;BME280;11754;42.664;23.594;2023-03-14T06:35:05;95459.44;;;5.06;48.68
23172;BME280;11754;42.664;23.594;2023-03-14T06:37:31;95450.66;;;5.17;48.96
23172;BME280;11754;42.664;23.594;2023-03-14T06:39:56;95457.84;;;5.34;49.53
23172;BME280;11754;42.664;23.594;2023-03-14T06:42:22;95454.72;;;5.50;49.41
23172;BME280;11754;42.664;23.594;2023-03-14T06:44:47;95458.75;;;5.73;48.27
23172;BME280;11754;42.664;23.594;2023-03-14T06:47:13;95453.22;;;5.86;46.58
23172;BME280;11754;42.664;23.594;2023-03-14T06:49:38;95464.69;;;6.05;46.65
23172;BME280;11754;42.664;23.594;2023-03-14T06:52:04;95462.84;;;6.34;45.79
23172;BME280;11754;42.664;23.594;2023-03-14T06:54:29;95468.91;;;6.44;43.80
23172;BME280;11754;42.664;23.594;2023-03-14T06:56:54;95464.88;;;6.60;44.75
23172;BME280;11754;42.664;23.594;2023-03-14T06:59:20;95459.69;;;6.87;43.06
23172;BME280;11754;42.664;23.594;2023-03-14T07:01:45;95450.97;;;6.96;43.47
23172;BME280;11754;42.664;23.594;2023-03-14T07:04:11;95438.44;;;7.18;42.77
23172;BME280;11754;42.664;23.594;2023-03-14T07:06:36;95440.06;;;7.46;42.83
23172;BME280;11754;42.664;23.594;2023-03-14T07:09:03;95434.69;;;7.66;41.22
23172;BME280;11754;42.664;23.594;2023-03-14T07:11:28;95431.66;;;7.97;40.59
23172;BME280;11754;42.664;23.594;2023-03-14T07:13:53;95436.22;;;8.30;39.19
23172;BME280;11754;42.664;23.594;2023-03-14T07:16:19;95432.69;;;8.39;39.14
23172;BME280;11754;42.664;23.594;2023-03-14T07:18:45;95429.63;;;8.70;38.27
23172;BME280;11754;42.664;23.594;2023-03-14T07:21:10;95421.75;;;8.78;37.03
23172;BME280;11754;42.664;23.594;2023-03-14T07:23:36;95421.75;;;8.78;37.09
23172;BME280;11754;42.664;23.594;2023-03-14T07:26:01;95417.31;;;8.79;37.30
23172;BME280;11754;42.664;23.594;2023-03-14T07:28:27;95411.19;;;9.04;36.92
23172;BME280;11754;42.664;23.594;2023-03-14T07:30:53;95401.88;;;9.18;35.03
23172;BME280;11754;42.664;23.594;2023-03-14T07:33:19;95406.19;;;9.27;36.05
23172;BME280;11754;42.664;23.594;2023-03-14T07:35:47;95407.56;;;9.48;35.58
23172;BME280;11754;42.664;23.594;2023-03-14T07:38:12;95410.53;;;9.53;36.47
23172;BME280;11754;42.664;23.594;2023-03-14T07:40:37;95407.47;;;9.74;36.02
23172;BME280;11754;42.664;23.594;2023-03-14T07:43:03;95402.22;;;10.06;35.57
23172;BME280;11754;42.664;23.594;2023-03-14T07:45:28;95387.22;;;10.15;35.14
23172;BME280;11754;42.664;23.594;2023-03-14T07:47:54;95388.88;;;10.24;35.16
23172;BME280;11754;42.664;23.594;2023-03-14T07:50:23;95388.88;;;10.41;35.33
23172;BME280;11754;42.664;23.594;2023-03-14T07:52:49;95381.91;;;10.56;34.04
23172;BME280;11754;42.664;23.594;2023-03-14T07:55:14;95378.56;;;10.70;34.31
23172;BME280;11754;42.664;23.594;2023-03-14T07:57:40;95370.94;;;10.92;34.39
23172;BME280;11754;42.664;23.594;2023-03-14T08:00:07;95349.41;;;11.11;32.72
23172;BME280;11754;42.664;23.594;2023-03-14T08:02:32;95368.22;;;11.39;32.78
23172;BME280;11754;42.664;23.594;2023-03-14T08:04:58;95358.84;;;11.83;31.35
23172;BME280;11754;42.664;23.594;2023-03-14T08:07:23;95368.50;;;12.21;31.92
23172;BME280;11754;42.664;23.594;2023-03-14T08:09:49;95357.72;;;12.61;31.28
23172;BME280;11754;42.664;23.594;2023-03-14T08:12:14;95350.22;;;12.49;31.24
23172;BME280;11754;42.664;23.594;2023-03-14T08:14:41;95369.50;;;13.03;30.74
23172;BME280;11754;42.664;23.594;2023-03-14T08:17:06;95350.91;;;13.47;29.88
23172;BME280;11754;42.664;23.594;2023-03-14T08:19:33;95364.41;;;13.74;29.54
23172;BME280;11754;42.664;23.594;2023-03-14T08:21:58;95368.09;;;14.15;29.00
23172;BME280;11754;42.664;23.594;2023-03-14T08:24:24;95359.72;;;14.40;28.43
23172;BME280;11754;42.664;23.594;2023-03-14T08:26:49;95338.56;;;14.81;28.27
23172;BME280;11754;42.664;23.594;2023-03-14T08:29:15;95355.81;;;14.64;28.22
23172;BME280;11754;42.664;23.594;2023-03-14T08:31:40;95345.00;;;15.42;27.49
23172;BME280;11754;42.664;23.594;2023-03-14T08:34:05;95346.41;;;14.96;27.12
23172;BME280;11754;42.664;23.594;2023-03-14T08:36:32;95333.72;;;15.33;26.96
23172;BME280;11754;42.664;23.594;2023-03-14T08:39:00;95341.69;;;15.94;25.52
23172;BME280;11754;42.664;23.594;2023-03-14T08:41:26;95334.31;;;16.09;25.74
23172;BME280;11754;42.664;23.594;2023-03-14T08:43:51;95329.00;;;16.36;25.52
23172;BME280;11754;42.664;23.594;2023-03-14T08:46:16;95321.50;;;17.18;25.11
23172;BME280;11754;42.664;23.594;2023-03-14T08:48:42;95324.69;;;17.33;24.25
23172;BME280;11754;42.664;23.594;2023-03-14T08:51:09;95327.66;;;17.05;24.67
23172;BME280;11754;42.664;23.594;2023-03-14T08:53:36;95317.25;;;17.48;23.21
23172;BME280;11754;42.664;23.594;2023-03-14T08:56:01;95318.94;;;18.13;22.66
23172;BME280;11754;42.664;23.594;2023-03-14T08:58:27;95313.59;;;18.13;22.76
23172;BME280;11754;42.664;23.594;2023-03-14T09:00:52;95304.16;;;17.85;23.56
23172;BME280;11754;42.664;23.594;2023-03-14T09:03:18;95305.97;;;18.41;23.42
23172;BME280;11754;42.664;23.594;2023-03-14T09:05:43;95296.28;;;18.72;23.39
23172;BME280;11754;42.664;23.594;2023-03-14T09:08:08;95282.75;;;20.36;21.14
23172;BME280;11754;42.664;23.594;2023-03-14T09:10:34;95283.50;;;20.55;21.40
23172;BME280;11754;42.664;23.594;2023-03-14T09:12:59;95266.94;;;20.34;21.09
23172;BME280;11754;42.664;23.594;2023-03-14T09:15:25;95279.78;;;20.56;21.22
23172;BME280;11754;42.664;23.594;2023-03-14T09:17:50;95271.19;;;21.58;20.47
23172;BME280;11754;42.664;23.594;2023-03-14T09:20:16;95265.97;;;22.98;18.14
23172;BME280;11754;42.664;23.594;2023-03-14T09:22:41;95255.53;;;23.23;18.09
23172;BME280;11754;42.664;23.594;2023-03-14T09:25:07;95254.94;;;22.83;18.99
23172;BME280;11754;42.664;23.594;2023-03-14T09:27:33;95240.13;;;23.41;17.91
23172;BME280;11754;42.664;23.594;2023-03-14T09:29:58;95235.94;;;24.79;16.65
23172;BME280;11754;42.664;23.594;2023-03-14T09:32:23;95236.28;;;25.60;16.84
23172;BME280;11754;42.664;23.594;2023-03-14T09:34:49;95225.31;;;26.13;16.25
23172;BME280;11754;42.664;23.594;2023-03-14T09:37:14;95219.75;;;28.48;14.30
23172;BME280;11754;42.664;23.594;2023-03-14T09:39:41;95207.38;;;29.81;13.63
23172;BME280;11754;42.664;23.594;2023-03-14T09:42:08;95204.84;;;31.02;13.39
23172;BME280;11754;42.664;23.594;2023-03-14T09:45:02;95191.66;;;31.59;12.21
23172;BME280;11754;42.664;23.594;2023-03-14T09:47:26;95183.13;;;34.91;10.02
23172;BME280;11754;42.664;23.594;2023-03-14T09:49:52;95178.50;;;37.01;9.42
23172;BME280;11754;42.664;23.594;2023-03-14T09:52:28;95163.41;;;36.62;9.22
23172;BME280;11754;42.664;23.594;2023-03-14T09:55:00;95162.69;;;37.23;8.64
23172;BME280;11754;42.664;23.594;2023-03-14T09:57:28;95150.84;;;36.40;8.91
23172;BME280;11754;42.664;23.594;2023-03-14T09:59:56;95153.63;;;37.35;9.05
23172;BME280;11754;42.664;23.594;2023-03-14T10:02:32;95138.81;;;37.76;8.76
23172;BME280;11754;42.664;23.594;2023-03-14T10:04:59;95123.19;;;38.20;8.13
23172;BME280;11754;42.664;23.594;2023-03-14T10:07:28;95119.34;;;40.22;7.41
23172;BME280;11754;42.664;23.594;2023-03-14T10:09:54;95105.16;;;40.66;7.42
23172;BME280;11754;42.664;23.594;2023-03-14T10:12:21;95101.66;;;42.32;7.08
23172;BME280;11754;42.664;23.594;2023-03-14T10:14:55;95089.03;;;42.76;6.66
23172;BME280;11754;42.664;23.594;2023-03-14T10:17:21;95102.09;;;40.71;7.16
23172;BME280;11754;42.664;23.594;2023-03-14T10:19:57;95077.47;;;40.20;7.59
23172;BME280;11754;42.664;23.594;2023-03-14T10:22:26;95079.38;;;41.61;6.95
23172;BME280;11754;42.664;23.594;2023-03-14T10:24:56;95079.19;;;42.07;6.63
23172;BME280;11754;42.664;23.594;2023-03-14T10:27:29;95062.88;;;43.94;6.16
23172;BME280;11754;42.664;23.594;2023-03-14T10:29:58;95070.09;;;44.24;5.87
23172;BME280;11754;42.664;23.594;2023-03-14T10:32:35;95053.09;;;44.61;5.99
23172;BME280;11754;42.664;23.594;2023-03-14T10:35:18;95042.41;;;44.88;5.69
23172;BME280;11754;42.664;23.594;2023-03-14T10:38:04;95042.97;;;45.99;5.10
23172;BME280;11754;42.664;23.594;2023-03-14T10:40:49;95035.94;;;46.99;5.10
23172;BME280;11754;42.664;23.594;2023-03-14T10:43:20;95029.25;;;46.30;4.87
23172;BME280;11754;42.664;23.594;2023-03-14T10:46:01;95017.56;;;45.83;5.12
23172;BME280;11754;42.664;23.594;2023-03-14T10:48:33;95019.63;;;44.00;5.65
23172;BME280;11754;42.664;23.594;2023-03-14T10:53:25;95009.25;;;40.97;6.37
23172;BME280;11754;42.664;23.594;2023-03-14T10:55:51;94999.50;;;40.30;6.68
23172;BME280;11754;42.664;23.594;2023-03-14T10:58:25;94996.34;;;40.09;6.58
23172;BME280;11754;42.664;23.594;2023-03-14T11:01:19;95003.06;;;40.77;6.75
23172;BME280;11754;42.664;23.594;2023-03-14T11:03:43;94987.69;;;37.43;7.96
23172;BME280;11754;42.664;23.594;2023-03-14T11:06:36;94982.25;;;36.53;8.18
23172;BME280;11754;42.664;23.594;2023-03-14T11:11:53;94962.81;;;40.10;6.53
23172;BME280;11754;42.664;23.594;2023-03-14T11:14:36;94958.09;;;41.70;6.16
23172;BME280;11754;42.664;23.594;2023-03-14T11:17:24;94942.34;;;40.11;6.73
23172;BME280;11754;42.664;23.594;2023-03-14T11:23:16;94932.38;;;41.36;6.21
23172;BME280;11754;42.664;23.594;2023-03-14T11:26:16;94923.06;;;40.38;6.77
23172;BME280;11754;42.664;23.594;2023-03-14T11:28:50;94913.16;;;40.60;6.57
23172;BME280;11754;42.664;23.594;2023-03-14T11:31:35;94914.63;;;41.07;6.31
23172;BME280;11754;42.664;23.594;2023-03-14T11:36:41;94912.53;;;41.64;6.11
23172;BME280;11754;42.664;23.594;2023-03-14T11:39:19;94904.34;;;41.38;6.13
23172;BME280;11754;42.664;23.594;2023-03-14T11:41:52;94886.88;;;42.08;6.01
23172;BME280;11754;42.664;23.594;2023-03-14T11:44:30;94886.25;;;40.30;6.46
23172;BME280;11754;42.664;23.594;2023-03-14T11:47:05;94886.75;;;40.36;6.19
23172;BME280;11754;42.664;23.594;2023-03-14T11:49:40;94872.00;;;39.59;6.46
23172;BME280;11754;42.664;23.594;2023-03-14T11:52:23;94867.28;;;41.12;6.22
23172;BME280;11754;42.664;23.594;2023-03-14T11:54:55;94857.00;;;43.01;5.47
23172;BME280;11754;42.664;23.594;2023-03-14T11:57:24;94850.78;;;45.12;4.70
23172;BME280;11754;42.664;23.594;2023-03-14T12:00:01;94848.00;;;45.85;4.57
23172;BME280;11754;42.664;23.594;2023-03-14T12:10:58;94825.94;;;42.08;5.58
23172;BME280;11754;42.664;23.594;2023-03-14T12:13:30;94825.63;;;41.72;5.80
23172;BME280;11754;42.664;23.594;2023-03-14T12:15:59;94821.72;;;42.98;5.07
23172;BME280;11754;42.664;23.594;2023-03-14T12:18:26;94807.31;;;43.91;4.91
23172;BME280;11754;42.664;23.594;2023-03-14T12:20:55;94808.78;;;43.45;5.34
23172;BME280;11754;42.664;23.594;2023-03-14T12:23:24;94802.09;;;42.55;5.48
23172;BME280;11754;42.664;23.594;2023-03-14T12:26:07;94796.81;;;43.09;5.44
23172;BME280;11754;42.664;23.594;2023-03-14T12:28:33;94787.41;;;43.63;5.37
23172;BME280;11754;42.664;23.594;2023-03-14T12:34:10;94785.44;;;44.18;4.82
23172;BME280;11754;42.664;23.594;2023-03-14T12:42:57;94778.38;;;46.68;4.03
23172;BME280;11754;42.664;23.594;2023-03-14T12:45:34;94778.28;;;45.33;4.28
23172;BME280;11754;42.664;23.594;2023-03-14T12:48:22;94766.81;;;43.72;4.76
23172;BME280;11754;42.664;23.594;2023-03-14T12:50:56;94767.59;;;44.19;4.72
23172;BME280;11754;42.664;23.594;2023-03-14T12:53:52;94753.56;;;42.97;5.17
23172;BME280;11754;42.664;23.594;2023-03-14T12:59:38;94752.09;;;41.78;5.75
23172;BME280;11754;42.664;23.594;2023-03-14T13:04:52;94759.66;;;41.00;5.82
23172;BME280;11754;42.664;23.594;2023-03-14T13:15:39;94729.72;;;39.85;6.24
23172;BME280;11754;42.664;23.594;2023-03-14T13:20:45;94730.06;;;37.63;7.34
23172;BME280;11754;42.664;23.594;2023-03-14T13:23:26;94716.31;;;37.63;7.13
23172;BME280;11754;42.664;23.594;2023-03-14T13:25:52;94715.75;;;37.10;7.47
23172;BME280;11754;42.664;23.594;2023-03-14T13:28:18;94716.25;;;37.79;7.37
23172;BME280;11754;42.664;23.594;2023-03-14T13:30:46;94719.56;;;36.21;7.54
23172;BME280;11754;42.664;23.594;2023-03-14T13:33:22;94698.16;;;35.49;8.21
23172;BME280;11754;42.664;23.594;2023-03-14T13:38:27;94698.03;;;34.09;8.97
23172;BME280;11754;42.664;23.594;2023-03-14T13:40:58;94685.47;;;33.28;9.20
23172;BME280;11754;42.664;23.594;2023-03-14T13:43:30;94688.78;;;33.93;9.11
23172;BME280;11754;42.664;23.594;2023-03-14T13:46:00;94694.56;;;33.03;9.80
23172;BME280;11754;42.664;23.594;2023-03-14T13:48:29;94693.72;;;32.55;10.18
23172;BME280;11754;42.664;23.594;2023-03-14T13:53:23;94683.31;;;32.40;10.01
23172;BME280;11754;42.664;23.594;2023-03-14T13:55:49;94675.97;;;31.97;10.07
23172;BME280;11754;42.664;23.594;2023-03-14T13:58:36;94657.94;;;31.04;10.39